sensor_id;sensor_type;location;lat;lon;timestamp;temperature;humidity
48920;DHT22;34730;50.894;6.052;2022-08-19T00:00:12;17.20;99.90
48920;DHT22;34730;50.894;6.052;2022-08-19T00:00:44;17.10;99.90
48920;DHT22;34730;50.894;6.052;2022-08-19T00:01:15;17.20;99.90
48920;DHT22;34730;50.894;6.052;2022-08-19T00:01:51;17.20;99.90
48920;DHT22;34730;50.894;6.052;2022-08-19T00:02:25;17.20;99.90
48920;DHT22;34730;50.894;6.052;2022-08-19T00:02:56;17.10;99.90
48920;DHT22;34730;50.894;6.052;2022-08-19T00:03:28;17.20;99.90
48920;DHT22;34730;50.894;6.052;2022-08-19T00:04:03;17.20;99.90
48920;DHT22;34730;50.894;6.052;2022-08-19T00:04:38;17.20;99.90
48920;DHT22;34730;50.894;6.052;2022-08-19T00:05:17;17.20;99.90
48920;DHT22;34730;50.894;6.052;2022-08-19T00:05:52;17.20;99.90
48920;DHT22;34730;50.894;6.052;2022-08-19T00:06:29;17.10;99.90
48920;DHT22;34730;50.894;6.052;2022-08-19T00:07:04;17.10;99.90
48920;DHT22;34730;50.894;6.052;2022-08-19T00:07:39;17.10;99.90
48920;DHT22;34730;50.894;6.052;2022-08-19T00:08:18;17.10;99.90
48920;DHT22;34730;50.894;6.052;2022-08-19T00:08:56;17.10;99.90
48920;DHT22;34730;50.894;6.052;2022-08-19T00:09:28;17.10;99.90
48920;DHT22;34730;50.894;6.052;2022-08-19T00:10:02;17.10;99.90
48920;DHT22;34730;50.894;6.052;2022-08-19T00:10:35;17.00;99.90
48920;DHT22;34730;50.894;6.052;2022-08-19T00:11:09;17.00;99.90
48920;DHT22;34730;50.894;6.052;2022-08-19T00:11:45;17.00;99.90
48920;DHT22;34730;50.894;6.052;2022-08-19T00:12:22;17.00;99.90
48920;DHT22;34730;50.894;6.052;2022-08-19T00:12:53;17.00;99.90
48920;DHT22;34730;50.894;6.052;2022-08-19T00:13:25;17.00;99.90
48920;DHT22;34730;50.894;6.052;2022-08-19T00:14:00;16.90;99.90
48920;DHT22;34730;50.894;6.052;2022-08-19T00:14:33;17.00;99.90
48920;DHT22;34730;50.894;6.052;2022-08-19T00:15:10;16.90;99.90
48920;DHT22;34730;50.894;6.052;2022-08-19T00:15:44;16.90;99.90
48920;DHT22;34730;50.894;6.052;2022-08-19T00:16:15;16.90;99.90
48920;DHT22;34730;50.894;6.052;2022-08-19T00:16:52;16.90;99.90
48920;DHT22;34730;50.894;6.052;2022-08-19T00:17:26;16.90;99.90
48920;DHT22;34730;50.894;6.052;2022-08-19T00:17:58;17.00;99.90
48920;DHT22;34730;50.894;6.052;2022-08-19T00:18:31;17.00;99.90
48920;DHT22;34730;50.894;6.052;2022-08-19T00:19:02;17.00;99.90
48920;DHT22;34730;50.894;6.052;2022-08-19T00:19:34;16.90;99.90
48920;DHT22;34730;50.894;6.052;2022-08-19T00:20:09;17.00;99.90
48920;DHT22;34730;50.894;6.052;2022-08-19T00:20:41;16.90;99.90
48920;DHT22;34730;50.894;6.052;2022-08-19T00:21:13;16.90;99.90
48920;DHT22;34730;50.894;6.052;2022-08-19T00:21:45;17.00;99.90
48920;DHT22;34730;50.894;6.052;2022-08-19T00:22:16;16.90;99.90
48920;DHT22;34730;50.894;6.052;2022-08-19T00:22:48;16.90;99.90
48920;DHT22;34730;50.894;6.052;2022-08-19T00:23:19;17.00;99.90
48920;DHT22;34730;50.894;6.052;2022-08-19T00:23:50;16.90;99.90
48920;DHT22;34730;50.894;6.052;2022-08-19T00:24:21;16.90;99.90
48920;DHT22;34730;50.894;6.052;2022-08-19T00:24:53;16.90;99.90
48920;DHT22;34730;50.894;6.052;2022-08-19T00:25:23;16.90;99.90
48920;DHT22;34730;50.894;6.052;2022-08-19T00:25:55;16.90;99.90
48920;DHT22;34730;50.894;6.052;2022-08-19T00:26:27;16.90;99.90
48920;DHT22;34730;50.894;6.052;2022-08-19T00:27:01;16.90;99.90
48920;DHT22;34730;50.894;6.052;2022-08-19T00:27:33;16.90;99.90
48920;DHT22;34730;50.894;6.052;2022-08-19T00:28:06;16.90;99.90
48920;DHT22;34730;50.894;6.052;2022-08-19T00:28:37;16.90;99.90
48920;DHT22;34730;50.894;6.052;2022-08-19T00:29:12;16.90;99.90
48920;DHT22;34730;50.894;6.052;2022-08-19T00:29:44;16.90;99.90
48920;DHT22;34730;50.894;6.052;2022-08-19T00:30:17;16.90;99.90
48920;DHT22;34730;50.894;6.052;2022-08-19T00:30:48;16.90;99.90
48920;DHT22;34730;50.894;6.052;2022-08-19T00:31:20;16.90;99.90
48920;DHT22;34730;50.894;6.052;2022-08-19T00:31:51;16.90;99.90
48920;DHT22;34730;50.894;6.052;2022-08-19T00:32:30;16.90;99.90
48920;DHT22;34730;50.894;6.052;2022-08-19T00:33:03;16.90;99.90
48920;DHT22;34730;50.894;6.052;2022-08-19T00:33:34;16.90;99.90
48920;DHT22;34730;50.894;6.052;2022-08-19T00:34:07;16.90;99.90
48920;DHT22;34730;50.894;6.052;2022-08-19T00:34:38;16.80;99.90
48920;DHT22;34730;50.894;6.052;2022-08-19T00:35:11;16.80;99.90
48920;DHT22;34730;50.894;6.052;2022-08-19T00:35:44;16.80;99.90
48920;DHT22;34730;50.894;6.052;2022-08-19T00:36:19;16.80;99.90
48920;DHT22;34730;50.894;6.052;2022-08-19T00:36:49;16.80;99.90
48920;DHT22;34730;50.894;6.052;2022-08-19T00:37:22;16.80;99.90
48920;DHT22;34730;50.894;6.052;2022-08-19T00:37:59;16.80;99.90
48920;DHT22;34730;50.894;6.052;2022-08-19T00:38:33;16.80;99.90
48920;DHT22;34730;50.894;6.052;2022-08-19T00:39:04;16.80;99.90
48920;DHT22;34730;50.894;6.052;2022-08-19T00:39:37;16.80;99.90
48920;DHT22;34730;50.894;6.052;2022-08-19T00:40:09;16.80;99.90
48920;DHT22;34730;50.894;6.052;2022-08-19T00:40:43;16.80;99.90
48920;DHT22;34730;50.894;6.052;2022-08-19T00:41:19;16.80;99.90
48920;DHT22;34730;50.894;6.052;2022-08-19T00:41:52;16.80;99.90
48920;DHT22;34730;50.894;6.052;2022-08-19T00:42:26;16.80;99.90
48920;DHT22;34730;50.894;6.052;2022-08-19T00:43:00;16.80;99.90
48920;DHT22;34730;50.894;6.052;2022-08-19T00:43:31;16.80;99.90
48920;DHT22;34730;50.894;6.052;2022-08-19T00:44:41;16.80;99.90
48920;DHT22;34730;50.894;6.052;2022-08-19T00:45:20;16.80;99.90
48920;DHT22;34730;50.894;6.052;2022-08-19T00:45:52;16.80;99.90
48920;DHT22;34730;50.894;6.052;2022-08-19T00:46:24;16.80;99.90
48920;DHT22;34730;50.894;6.052;2022-08-19T00:46:58;16.80;99.90
48920;DHT22;34730;50.894;6.052;2022-08-19T00:47:29;16.80;99.90
48920;DHT22;34730;50.894;6.052;2022-08-19T00:48:00;16.80;99.90
48920;DHT22;34730;50.894;6.052;2022-08-19T00:48:34;16.80;99.90
48920;DHT22;34730;50.894;6.052;2022-08-19T00:49:16;16.80;99.90
48920;DHT22;34730;50.894;6.052;2022-08-19T00:49:51;16.80;99.90
48920;DHT22;34730;50.894;6.052;2022-08-19T00:50:23;16.80;99.90
48920;DHT22;34730;50.894;6.052;2022-08-19T00:50:57;16.80;99.90
48920;DHT22;34730;50.894;6.052;2022-08-19T00:51:32;16.70;99.90
48920;DHT22;34730;50.894;6.052;2022-08-19T00:52:26;16.80;99.90
48920;DHT22;34730;50.894;6.052;2022-08-19T00:52:59;16.80;99.90
48920;DHT22;34730;50.894;6.052;2022-08-19T00:53:34;16.70;99.90
48920;DHT22;34730;50.894;6.052;2022-08-19T00:54:10;16.70;99.90
48920;DHT22;34730;50.894;6.052;2022-08-19T00:54:42;16.70;99.90
48920;DHT22;34730;50.894;6.052;2022-08-19T00:55:17;16.70;99.90
48920;DHT22;34730;50.894;6.052;2022-08-19T00:55:52;16.70;99.90
48920;DHT22;34730;50.894;6.052;2022-08-19T00:56:24;16.70;99.90
48920;DHT22;34730;50.894;6.052;2022-08-19T00:56:59;16.70;99.90
48920;DHT22;34730;50.894;6.052;2022-08-19T00:57:34;16.70;99.90
48920;DHT22;34730;50.894;6.052;2022-08-19T00:58:10;16.70;99.90
48920;DHT22;34730;50.894;6.052;2022-08-19T00:58:42;16.70;99.90
48920;DHT22;34730;50.894;6.052;2022-08-19T00:59:20;16.70;99.90
48920;DHT22;34730;50.894;6.052;2022-08-19T00:59:52;16.70;99.90
48920;DHT22;34730;50.894;6.052;2022-08-19T01:00:27;16.70;99.90
48920;DHT22;34730;50.894;6.052;2022-08-19T01:01:00;16.70;99.90
48920;DHT22;34730;50.894;6.052;2022-08-19T01:01:33;16.70;99.90
48920;DHT22;34730;50.894;6.052;2022-08-19T01:02:05;16.70;99.90
48920;DHT22;34730;50.894;6.052;2022-08-19T01:02:36;16.70;99.90
48920;DHT22;34730;50.894;6.052;2022-08-19T01:03:11;16.70;99.90
48920;DHT22;34730;50.894;6.052;2022-08-19T01:03:45;16.70;99.90
48920;DHT22;34730;50.894;6.052;2022-08-19T01:04:18;16.70;99.90
48920;DHT22;34730;50.894;6.052;2022-08-19T01:04:49;16.70;99.90
48920;DHT22;34730;50.894;6.052;2022-08-19T01:05:26;16.70;99.90
48920;DHT22;34730;50.894;6.052;2022-08-19T01:05:58;16.70;99.90
48920;DHT22;34730;50.894;6.052;2022-08-19T01:06:35;16.70;99.90
48920;DHT22;34730;50.894;6.052;2022-08-19T01:07:07;16.60;99.90
48920;DHT22;34730;50.894;6.052;2022-08-19T01:07:41;16.60;99.90
48920;DHT22;34730;50.894;6.052;2022-08-19T01:08:15;16.60;99.90
48920;DHT22;34730;50.894;6.052;2022-08-19T01:08:48;16.60;99.90
48920;DHT22;34730;50.894;6.052;2022-08-19T01:09:19;16.60;99.90
48920;DHT22;34730;50.894;6.052;2022-08-19T01:09:52;16.60;99.90
48920;DHT22;34730;50.894;6.052;2022-08-19T01:10:27;16.60;99.90
48920;DHT22;34730;50.894;6.052;2022-08-19T01:11:02;16.60;99.90
48920;DHT22;34730;50.894;6.052;2022-08-19T01:11:42;16.60;99.90
48920;DHT22;34730;50.894;6.052;2022-08-19T01:12:18;16.60;99.90
48920;DHT22;34730;50.894;6.052;2022-08-19T01:12:52;16.60;99.90
48920;DHT22;34730;50.894;6.052;2022-08-19T01:13:29;16.60;99.90
48920;DHT22;34730;50.894;6.052;2022-08-19T01:14:03;16.50;99.90
48920;DHT22;34730;50.894;6.052;2022-08-19T01:14:39;16.50;99.90
48920;DHT22;34730;50.894;6.052;2022-08-19T01:15:14;16.50;99.90
48920;DHT22;34730;50.894;6.052;2022-08-19T01:15:53;16.50;99.90
48920;DHT22;34730;50.894;6.052;2022-08-19T01:16:28;16.50;99.90
48920;DHT22;34730;50.894;6.052;2022-08-19T01:17:00;16.50;99.90
48920;DHT22;34730;50.894;6.052;2022-08-19T01:17:31;16.50;99.90
48920;DHT22;34730;50.894;6.052;2022-08-19T01:18:12;16.50;99.90
48920;DHT22;34730;50.894;6.052;2022-08-19T01:18:44;16.50;99.90
48920;DHT22;34730;50.894;6.052;2022-08-19T01:19:21;16.50;99.90
48920;DHT22;34730;50.894;6.052;2022-08-19T01:19:53;16.60;99.90
48920;DHT22;34730;50.894;6.052;2022-08-19T01:20:27;16.50;99.90
48920;DHT22;34730;50.894;6.052;2022-08-19T01:21:02;16.50;99.90
48920;DHT22;34730;50.894;6.052;2022-08-19T01:21:42;16.50;99.90
48920;DHT22;34730;50.894;6.052;2022-08-19T01:22:59;16.50;99.90
48920;DHT22;34730;50.894;6.052;2022-08-19T01:23:30;16.50;99.90
48920;DHT22;34730;50.894;6.052;2022-08-19T01:24:13;16.50;99.90
48920;DHT22;34730;50.894;6.052;2022-08-19T01:24:46;16.50;99.90
48920;DHT22;34730;50.894;6.052;2022-08-19T01:25:23;16.40;99.90
48920;DHT22;34730;50.894;6.052;2022-08-19T01:25:58;16.50;99.90
48920;DHT22;34730;50.894;6.052;2022-08-19T01:26:43;16.50;99.90
48920;DHT22;34730;50.894;6.052;2022-08-19T01:27:15;16.50;99.90
48920;DHT22;34730;50.894;6.052;2022-08-19T01:27:48;16.50;99.90
48920;DHT22;34730;50.894;6.052;2022-08-19T01:28:24;16.50;99.90
48920;DHT22;34730;50.894;6.052;2022-08-19T01:28:59;16.50;99.90
48920;DHT22;34730;50.894;6.052;2022-08-19T01:29:33;16.50;99.90
48920;DHT22;34730;50.894;6.052;2022-08-19T01:30:08;16.50;99.90
48920;DHT22;34730;50.894;6.052;2022-08-19T01:30:39;16.50;99.90
48920;DHT22;34730;50.894;6.052;2022-08-19T01:31:14;16.40;99.90
48920;DHT22;34730;50.894;6.052;2022-08-19T01:31:48;16.40;99.90
48920;DHT22;34730;50.894;6.052;2022-08-19T01:32:19;16.40;99.90
48920;DHT22;34730;50.894;6.052;2022-08-19T01:32:51;16.50;99.90
48920;DHT22;34730;50.894;6.052;2022-08-19T01:33:22;16.50;99.90
48920;DHT22;34730;50.894;6.052;2022-08-19T01:33:55;16.40;99.90
48920;DHT22;34730;50.894;6.052;2022-08-19T01:34:28;16.40;99.90
48920;DHT22;34730;50.894;6.052;2022-08-19T01:35:03;16.40;99.90
48920;DHT22;34730;50.894;6.052;2022-08-19T01:35:35;16.40;99.90
48920;DHT22;34730;50.894;6.052;2022-08-19T01:36:12;16.40;99.90
48920;DHT22;34730;50.894;6.052;2022-08-19T01:36:44;16.40;99.90
48920;DHT22;34730;50.894;6.052;2022-08-19T01:37:19;16.40;99.90
48920;DHT22;34730;50.894;6.052;2022-08-19T01:37:54;16.40;99.90
48920;DHT22;34730;50.894;6.052;2022-08-19T01:38:27;16.40;99.90
48920;DHT22;34730;50.894;6.052;2022-08-19T01:39:07;16.40;99.90
48920;DHT22;34730;50.894;6.052;2022-08-19T01:39:42;16.40;99.90
48920;DHT22;34730;50.894;6.052;2022-08-19T01:40:16;16.40;99.90
48920;DHT22;34730;50.894;6.052;2022-08-19T01:40:49;16.40;99.90
48920;DHT22;34730;50.894;6.052;2022-08-19T01:41:20;16.30;99.90
48920;DHT22;34730;50.894;6.052;2022-08-19T01:41:53;16.40;99.90
48920;DHT22;34730;50.894;6.052;2022-08-19T01:42:27;16.30;99.90
48920;DHT22;34730;50.894;6.052;2022-08-19T01:43:01;16.30;99.90
48920;DHT22;34730;50.894;6.052;2022-08-19T01:43:33;16.40;99.90
48920;DHT22;34730;50.894;6.052;2022-08-19T01:44:10;16.40;99.90
48920;DHT22;34730;50.894;6.052;2022-08-19T01:44:45;16.40;99.90
48920;DHT22;34730;50.894;6.052;2022-08-19T01:45:20;16.30;99.90
48920;DHT22;34730;50.894;6.052;2022-08-19T01:45:53;16.30;99.90
48920;DHT22;34730;50.894;6.052;2022-08-19T01:46:24;16.30;99.90
48920;DHT22;34730;50.894;6.052;2022-08-19T01:46:57;16.30;99.90
48920;DHT22;34730;50.894;6.052;2022-08-19T01:47:28;16.30;99.90
48920;DHT22;34730;50.894;6.052;2022-08-19T01:48:03;16.30;99.90
48920;DHT22;34730;50.894;6.052;2022-08-19T01:48:36;16.30;99.90
48920;DHT22;34730;50.894;6.052;2022-08-19T01:49:08;16.20;99.90
48920;DHT22;34730;50.894;6.052;2022-08-19T01:49:39;16.20;99.90
48920;DHT22;34730;50.894;6.052;2022-08-19T01:50:13;16.30;99.90
48920;DHT22;34730;50.894;6.052;2022-08-19T01:50:44;16.20;99.90
48920;DHT22;34730;50.894;6.052;2022-08-19T01:51:18;16.20;99.90
48920;DHT22;34730;50.894;6.052;2022-08-19T01:51:49;16.30;99.90
48920;DHT22;34730;50.894;6.052;2022-08-19T01:52:31;16.20;99.90
48920;DHT22;34730;50.894;6.052;2022-08-19T01:53:06;16.30;99.90
48920;DHT22;34730;50.894;6.052;2022-08-19T01:53:38;16.20;99.90
48920;DHT22;34730;50.894;6.052;2022-08-19T01:54:12;16.20;99.90
48920;DHT22;34730;50.894;6.052;2022-08-19T01:54:43;16.20;99.90
48920;DHT22;34730;50.894;6.052;2022-08-19T01:55:17;16.30;99.90
48920;DHT22;34730;50.894;6.052;2022-08-19T01:55:53;16.20;99.90
48920;DHT22;34730;50.894;6.052;2022-08-19T01:56:27;16.30;99.90
48920;DHT22;34730;50.894;6.052;2022-08-19T01:57:11;16.20;99.90
48920;DHT22;34730;50.894;6.052;2022-08-19T01:57:47;16.20;99.90
48920;DHT22;34730;50.894;6.052;2022-08-19T01:58:33;16.20;99.90
48920;DHT22;34730;50.894;6.052;2022-08-19T01:59:14;16.20;99.90
48920;DHT22;34730;50.894;6.052;2022-08-19T01:59:46;16.20;99.90
48920;DHT22;34730;50.894;6.052;2022-08-19T02:00:19;16.20;99.90
48920;DHT22;34730;50.894;6.052;2022-08-19T02:00:51;16.20;99.90
48920;DHT22;34730;50.894;6.052;2022-08-19T02:01:24;16.10;99.90
48920;DHT22;34730;50.894;6.052;2022-08-19T02:01:55;16.20;99.90
48920;DHT22;34730;50.894;6.052;2022-08-19T02:02:26;16.10;99.90
48920;DHT22;34730;50.894;6.052;2022-08-19T02:02:56;16.10;99.90
48920;DHT22;34730;50.894;6.052;2022-08-19T02:03:30;16.10;99.90
48920;DHT22;34730;50.894;6.052;2022-08-19T02:04:01;16.10;99.90
48920;DHT22;34730;50.894;6.052;2022-08-19T02:04:34;16.10;99.90
48920;DHT22;34730;50.894;6.052;2022-08-19T02:05:08;16.10;99.90
48920;DHT22;34730;50.894;6.052;2022-08-19T02:05:40;16.10;99.90
48920;DHT22;34730;50.894;6.052;2022-08-19T02:06:13;16.10;99.90
48920;DHT22;34730;50.894;6.052;2022-08-19T02:06:44;16.10;99.90
48920;DHT22;34730;50.894;6.052;2022-08-19T02:07:20;16.10;99.90
48920;DHT22;34730;50.894;6.052;2022-08-19T02:07:52;16.10;99.90
48920;DHT22;34730;50.894;6.052;2022-08-19T02:08:23;16.10;99.90
48920;DHT22;34730;50.894;6.052;2022-08-19T02:08:57;16.10;99.90
48920;DHT22;34730;50.894;6.052;2022-08-19T02:09:28;16.10;99.90
48920;DHT22;34730;50.894;6.052;2022-08-19T02:10:02;16.10;99.90
48920;DHT22;34730;50.894;6.052;2022-08-19T02:10:39;16.00;99.90
48920;DHT22;34730;50.894;6.052;2022-08-19T02:11:18;16.10;99.90
48920;DHT22;34730;50.894;6.052;2022-08-19T02:11:50;16.10;99.90
48920;DHT22;34730;50.894;6.052;2022-08-19T02:12:21;16.00;99.90
48920;DHT22;34730;50.894;6.052;2022-08-19T02:12:54;16.10;99.90
48920;DHT22;34730;50.894;6.052;2022-08-19T02:13:25;16.00;99.90
48920;DHT22;34730;50.894;6.052;2022-08-19T02:13:59;16.00;99.90
48920;DHT22;34730;50.894;6.052;2022-08-19T02:14:29;16.10;99.90
48920;DHT22;34730;50.894;6.052;2022-08-19T02:15:06;16.00;99.90
48920;DHT22;34730;50.894;6.052;2022-08-19T02:15:40;16.10;99.90
48920;DHT22;34730;50.894;6.052;2022-08-19T02:16:12;16.00;99.90
48920;DHT22;34730;50.894;6.052;2022-08-19T02:16:45;16.00;99.90
48920;DHT22;34730;50.894;6.052;2022-08-19T02:17:19;16.00;99.90
48920;DHT22;34730;50.894;6.052;2022-08-19T02:17:50;16.00;99.90
48920;DHT22;34730;50.894;6.052;2022-08-19T02:18:21;16.00;99.90
48920;DHT22;34730;50.894;6.052;2022-08-19T02:18:55;16.10;99.90
48920;DHT22;34730;50.894;6.052;2022-08-19T02:19:26;16.00;99.90
48920;DHT22;34730;50.894;6.052;2022-08-19T02:19:57;16.00;99.90
48920;DHT22;34730;50.894;6.052;2022-08-19T02:20:27;16.00;99.90
48920;DHT22;34730;50.894;6.052;2022-08-19T02:20:58;16.00;99.90
48920;DHT22;34730;50.894;6.052;2022-08-19T02:21:30;16.00;99.90
48920;DHT22;34730;50.894;6.052;2022-08-19T02:22:06;16.00;99.90
48920;DHT22;34730;50.894;6.052;2022-08-19T02:22:42;16.00;99.90
48920;DHT22;34730;50.894;6.052;2022-08-19T02:23:16;16.00;99.90
48920;DHT22;34730;50.894;6.052;2022-08-19T02:23:50;16.00;99.90
48920;DHT22;34730;50.894;6.052;2022-08-19T02:24:21;16.00;99.90
48920;DHT22;34730;50.894;6.052;2022-08-19T02:24:55;16.00;99.90
48920;DHT22;34730;50.894;6.052;2022-08-19T02:25:27;16.00;99.90
48920;DHT22;34730;50.894;6.052;2022-08-19T02:25:57;16.00;99.90
48920;DHT22;34730;50.894;6.052;2022-08-19T02:26:28;16.00;99.90
48920;DHT22;34730;50.894;6.052;2022-08-19T02:26:59;16.00;99.90
48920;DHT22;34730;50.894;6.052;2022-08-19T02:27:30;16.00;99.90
48920;DHT22;34730;50.894;6.052;2022-08-19T02:28:02;16.00;99.90
48920;DHT22;34730;50.894;6.052;2022-08-19T02:28:33;16.00;99.90
48920;DHT22;34730;50.894;6.052;2022-08-19T02:29:08;16.00;99.90
48920;DHT22;34730;50.894;6.052;2022-08-19T02:29:41;16.00;99.90
48920;DHT22;34730;50.894;6.052;2022-08-19T02:30:15;16.00;99.90
48920;DHT22;34730;50.894;6.052;2022-08-19T02:30:50;15.90;99.90
48920;DHT22;34730;50.894;6.052;2022-08-19T02:31:23;15.90;99.90
48920;DHT22;34730;50.894;6.052;2022-08-19T02:31:54;15.90;99.90
48920;DHT22;34730;50.894;6.052;2022-08-19T02:32:28;15.90;99.90
48920;DHT22;34730;50.894;6.052;2022-08-19T02:33:00;15.90;99.90
48920;DHT22;34730;50.894;6.052;2022-08-19T02:33:33;15.90;99.90
48920;DHT22;34730;50.894;6.052;2022-08-19T02:34:04;15.90;99.90
48920;DHT22;34730;50.894;6.052;2022-08-19T02:34:38;15.90;99.90
48920;DHT22;34730;50.894;6.052;2022-08-19T02:35:09;15.90;99.90
48920;DHT22;34730;50.894;6.052;2022-08-19T02:35:45;15.90;99.90
48920;DHT22;34730;50.894;6.052;2022-08-19T02:36:16;15.90;99.90
48920;DHT22;34730;50.894;6.052;2022-08-19T02:36:51;15.90;99.90
48920;DHT22;34730;50.894;6.052;2022-08-19T02:37:25;15.90;99.90
48920;DHT22;34730;50.894;6.052;2022-08-19T02:38:15;15.90;99.90
48920;DHT22;34730;50.894;6.052;2022-08-19T02:38:58;15.90;99.90
48920;DHT22;34730;50.894;6.052;2022-08-19T02:39:29;15.80;99.90
48920;DHT22;34730;50.894;6.052;2022-08-19T02:40:05;15.90;99.90
48920;DHT22;34730;50.894;6.052;2022-08-19T02:40:39;15.90;99.90
48920;DHT22;34730;50.894;6.052;2022-08-19T02:41:19;15.80;99.90
48920;DHT22;34730;50.894;6.052;2022-08-19T02:41:50;15.80;99.90
48920;DHT22;34730;50.894;6.052;2022-08-19T02:42:25;15.80;99.90
48920;DHT22;34730;50.894;6.052;2022-08-19T02:42:56;15.80;99.90
48920;DHT22;34730;50.894;6.052;2022-08-19T02:43:29;15.80;99.90
48920;DHT22;34730;50.894;6.052;2022-08-19T02:44:03;15.80;99.90
48920;DHT22;34730;50.894;6.052;2022-08-19T02:44:35;15.80;99.90
48920;DHT22;34730;50.894;6.052;2022-08-19T02:45:06;15.80;99.90
48920;DHT22;34730;50.894;6.052;2022-08-19T02:45:38;15.80;99.90
48920;DHT22;34730;50.894;6.052;2022-08-19T02:46:18;15.80;99.90
48920;DHT22;34730;50.894;6.052;2022-08-19T02:46:51;15.80;99.90
48920;DHT22;34730;50.894;6.052;2022-08-19T02:47:22;15.80;99.90
48920;DHT22;34730;50.894;6.052;2022-08-19T02:47:55;15.80;99.90
48920;DHT22;34730;50.894;6.052;2022-08-19T02:48:27;15.80;99.90
48920;DHT22;34730;50.894;6.052;2022-08-19T02:49:05;15.80;99.90
48920;DHT22;34730;50.894;6.052;2022-08-19T02:49:38;15.80;99.90
48920;DHT22;34730;50.894;6.052;2022-08-19T02:50:12;15.80;99.90
48920;DHT22;34730;50.894;6.052;2022-08-19T02:50:44;15.80;99.90
48920;DHT22;34730;50.894;6.052;2022-08-19T02:51:29;15.80;99.90
48920;DHT22;34730;50.894;6.052;2022-08-19T02:52:01;15.80;99.90
48920;DHT22;34730;50.894;6.052;2022-08-19T02:52:39;15.80;99.90
48920;DHT22;34730;50.894;6.052;2022-08-19T02:53:16;15.80;99.90
48920;DHT22;34730;50.894;6.052;2022-08-19T02:53:50;15.80;99.90
48920;DHT22;34730;50.894;6.052;2022-08-19T02:54:21;15.90;99.90
48920;DHT22;34730;50.894;6.052;2022-08-19T02:54:51;15.90;99.90
48920;DHT22;34730;50.894;6.052;2022-08-19T02:55:23;15.90;99.90
48920;DHT22;34730;50.894;6.052;2022-08-19T02:55:54;15.90;99.90
48920;DHT22;34730;50.894;6.052;2022-08-19T02:56:28;15.90;99.90
48920;DHT22;34730;50.894;6.052;2022-08-19T02:56:59;15.90;99.90
48920;DHT22;34730;50.894;6.052;2022-08-19T02:57:31;15.90;99.90
48920;DHT22;34730;50.894;6.052;2022-08-19T02:58:02;15.90;99.90
48920;DHT22;34730;50.894;6.052;2022-08-19T02:58:33;15.90;99.90
48920;DHT22;34730;50.894;6.052;2022-08-19T02:59:04;15.90;99.90
48920;DHT22;34730;50.894;6.052;2022-08-19T02:59:43;15.90;99.90
48920;DHT22;34730;50.894;6.052;2022-08-19T03:00:23;15.90;99.90
48920;DHT22;34730;50.894;6.052;2022-08-19T03:00:57;15.90;99.90
48920;DHT22;34730;50.894;6.052;2022-08-19T03:01:31;15.80;99.90
48920;DHT22;34730;50.894;6.052;2022-08-19T03:02:05;15.90;99.90
48920;DHT22;34730;50.894;6.052;2022-08-19T03:02:41;15.90;99.90
48920;DHT22;34730;50.894;6.052;2022-08-19T03:03:15;15.90;99.90
48920;DHT22;34730;50.894;6.052;2022-08-19T03:03:48;15.90;99.90
48920;DHT22;34730;50.894;6.052;2022-08-19T03:04:19;15.90;99.90
48920;DHT22;34730;50.894;6.052;2022-08-19T03:04:53;15.90;99.90
48920;DHT22;34730;50.894;6.052;2022-08-19T03:05:26;15.90;99.90
48920;DHT22;34730;50.894;6.052;2022-08-19T03:06:12;15.90;99.90
48920;DHT22;34730;50.894;6.052;2022-08-19T03:06:45;15.90;99.90
48920;DHT22;34730;50.894;6.052;2022-08-19T03:07:17;15.90;99.90
48920;DHT22;34730;50.894;6.052;2022-08-19T03:07:51;15.90;99.90
48920;DHT22;34730;50.894;6.052;2022-08-19T03:08:21;16.00;99.90
48920;DHT22;34730;50.894;6.052;2022-08-19T03:08:55;15.90;99.90
48920;DHT22;34730;50.894;6.052;2022-08-19T03:09:26;15.90;99.90
48920;DHT22;34730;50.894;6.052;2022-08-19T03:09:58;15.90;99.90
48920;DHT22;34730;50.894;6.052;2022-08-19T03:10:29;15.90;99.90
48920;DHT22;34730;50.894;6.052;2022-08-19T03:11:00;15.90;99.90
48920;DHT22;34730;50.894;6.052;2022-08-19T03:11:31;16.00;99.90
48920;DHT22;34730;50.894;6.052;2022-08-19T03:12:06;15.90;99.90
48920;DHT22;34730;50.894;6.052;2022-08-19T03:12:39;16.00;99.90
48920;DHT22;34730;50.894;6.052;2022-08-19T03:13:12;16.00;99.90
48920;DHT22;34730;50.894;6.052;2022-08-19T03:13:46;16.00;99.90
48920;DHT22;34730;50.894;6.052;2022-08-19T03:14:19;16.00;99.90
48920;DHT22;34730;50.894;6.052;2022-08-19T03:14:50;16.00;99.90
48920;DHT22;34730;50.894;6.052;2022-08-19T03:15:22;16.00;99.90
48920;DHT22;34730;50.894;6.052;2022-08-19T03:15:55;16.00;99.90
48920;DHT22;34730;50.894;6.052;2022-08-19T03:16:33;16.00;99.90
48920;DHT22;34730;50.894;6.052;2022-08-19T03:17:09;15.90;99.90
48920;DHT22;34730;50.894;6.052;2022-08-19T03:17:48;15.90;99.90
48920;DHT22;34730;50.894;6.052;2022-08-19T03:18:20;15.90;99.90
48920;DHT22;34730;50.894;6.052;2022-08-19T03:18:55;16.00;99.90
48920;DHT22;34730;50.894;6.052;2022-08-19T03:19:30;16.00;99.90
48920;DHT22;34730;50.894;6.052;2022-08-19T03:20:03;16.00;99.90
48920;DHT22;34730;50.894;6.052;2022-08-19T03:20:50;16.00;99.90
48920;DHT22;34730;50.894;6.052;2022-08-19T03:21:26;16.00;99.90
48920;DHT22;34730;50.894;6.052;2022-08-19T03:21:57;16.00;99.90
48920;DHT22;34730;50.894;6.052;2022-08-19T03:22:29;16.00;99.90
48920;DHT22;34730;50.894;6.052;2022-08-19T03:23:02;16.00;99.90
48920;DHT22;34730;50.894;6.052;2022-08-19T03:23:34;16.00;99.90
48920;DHT22;34730;50.894;6.052;2022-08-19T03:24:08;16.00;99.90
48920;DHT22;34730;50.894;6.052;2022-08-19T03:24:39;16.00;99.90
48920;DHT22;34730;50.894;6.052;2022-08-19T03:25:10;16.00;99.90
48920;DHT22;34730;50.894;6.052;2022-08-19T03:25:45;16.00;99.90
48920;DHT22;34730;50.894;6.052;2022-08-19T03:26:19;16.00;99.90
48920;DHT22;34730;50.894;6.052;2022-08-19T03:26:54;16.00;99.90
48920;DHT22;34730;50.894;6.052;2022-08-19T03:27:29;16.00;99.90
48920;DHT22;34730;50.894;6.052;2022-08-19T03:28:00;16.10;99.90
48920;DHT22;34730;50.894;6.052;2022-08-19T03:28:33;16.10;99.90
48920;DHT22;34730;50.894;6.052;2022-08-19T03:29:05;16.10;99.90
48920;DHT22;34730;50.894;6.052;2022-08-19T03:29:37;16.20;99.90
48920;DHT22;34730;50.894;6.052;2022-08-19T03:30:09;16.20;99.90
48920;DHT22;34730;50.894;6.052;2022-08-19T03:31:01;16.20;99.90
48920;DHT22;34730;50.894;6.052;2022-08-19T03:31:32;16.20;99.90
48920;DHT22;34730;50.894;6.052;2022-08-19T03:32:06;16.20;99.90
48920;DHT22;34730;50.894;6.052;2022-08-19T03:32:39;16.20;99.90
48920;DHT22;34730;50.894;6.052;2022-08-19T03:33:10;16.20;99.90
48920;DHT22;34730;50.894;6.052;2022-08-19T03:33:45;16.20;99.90
48920;DHT22;34730;50.894;6.052;2022-08-19T03:34:22;16.30;99.90
48920;DHT22;34730;50.894;6.052;2022-08-19T03:34:56;16.30;99.90